createdAt,value
2022-11-14T00:01:40.826Z,68.11
2022-11-14T00:07:32.199Z,68.09
2022-11-14T00:13:22.434Z,68.50
2022-11-14T00:19:12.542Z,67.91
2022-11-14T00:25:02.363Z,67.94
2022-11-14T00:30:52.295Z,68.42
2022-11-14T00:36:43.451Z,68.11
2022-11-14T00:42:34.826Z,68.57
2022-11-14T00:48:24.854Z,68.28
2022-11-14T00:54:14.953Z,68.45
2022-11-14T01:00:06.742Z,68.46
2022-11-14T01:05:56.605Z,68.17
2022-11-14T01:11:46.941Z,68.45
2022-11-14T01:17:37.319Z,67.98
2022-11-14T01:23:27.592Z,68.25
2022-11-14T01:29:17.882Z,68.44
2022-11-14T01:35:08.118Z,68.54
2022-11-14T01:40:57.989Z,68.55
2022-11-14T01:46:51.650Z,68.49
2022-11-14T01:52:42.125Z,68.29
2022-11-14T01:58:33.050Z,68.28
2022-11-14T02:04:28.769Z,68.70
2022-11-14T02:10:20.879Z,68.75
2022-11-14T02:16:11.159Z,68.81
2022-11-14T02:22:01.115Z,68.45
2022-11-14T02:27:51.773Z,68.78
2022-11-14T02:33:42.453Z,68.85
2022-11-14T02:39:32.631Z,68.76
2022-11-14T02:45:22.641Z,68.46
2022-11-14T02:51:13.113Z,68.81
2022-11-14T02:57:03.143Z,68.48
2022-11-14T03:02:54.195Z,68.65
2022-11-14T03:08:44.557Z,69.21
2022-11-14T03:14:34.855Z,68.90
2022-11-14T03:20:25.633Z,68.93
2022-11-14T03:26:16.764Z,68.44
2022-11-14T03:32:06.860Z,68.45
2022-11-14T03:37:57.083Z,68.68
2022-11-14T03:43:46.972Z,68.92
2022-11-14T03:49:36.861Z,69.08
2022-11-14T03:55:27.168Z,68.69
2022-11-14T04:01:17.218Z,69.10
2022-11-14T04:07:07.253Z,68.91
2022-11-14T04:12:57.372Z,69.01
2022-11-14T04:18:47.599Z,68.69
2022-11-14T04:24:37.686Z,68.76
2022-11-14T04:30:30.857Z,68.75
2022-11-14T04:36:24.410Z,69.00
2022-11-14T04:42:14.607Z,69.01
2022-11-14T04:48:04.399Z,69.13
2022-11-14T04:53:54.342Z,68.73
2022-11-14T04:59:44.786Z,69.14
2022-11-14T05:05:40.676Z,69.29
2022-11-14T05:11:34.106Z,68.78
2022-11-14T05:17:24.189Z,69.34
2022-11-14T05:23:20.959Z,69.49
2022-11-14T05:29:11.890Z,69.22
2022-11-14T05:35:02.281Z,69.29
2022-11-14T05:40:52.117Z,69.62
2022-11-14T05:46:42.568Z,69.96
2022-11-14T05:52:32.918Z,69.89
2022-11-14T05:58:22.973Z,70.37
2022-11-14T06:04:15.019Z,69.94
2022-11-14T06:10:05.355Z,70.62
2022-11-14T06:16:00.882Z,70.75
2022-11-14T06:21:50.649Z,70.53
2022-11-14T06:27:40.930Z,70.46
2022-11-14T06:33:35.128Z,70.84
2022-11-14T06:39:25.103Z,70.81
2022-11-14T06:45:15.649Z,71.33
2022-11-14T06:51:06.272Z,71.11
2022-11-14T06:56:56.164Z,71.20
2022-11-14T07:02:46.621Z,71.66
2022-11-14T07:08:36.908Z,70.91
2022-11-14T07:14:28.891Z,71.11
2022-11-14T07:20:18.982Z,71.19
2022-11-14T07:26:11.123Z,70.93
2022-11-14T07:32:01.377Z,70.59
2022-11-14T07:37:51.831Z,70.76
2022-11-14T07:43:43.075Z,70.80
2022-11-14T07:49:34.814Z,71.22
2022-11-14T07:55:25.348Z,70.83
2022-11-14T08:01:15.725Z,70.94
2022-11-14T08:07:05.864Z,71.26
2022-11-14T08:13:30.490Z,71.16
2022-11-14T08:19:16.903Z,71.85
2022-11-14T08:25:07.955Z,71.64
2022-11-14T08:31:02.507Z,71.79
2022-11-14T08:36:52.754Z,71.51
2022-11-14T08:42:42.815Z,71.30
2022-11-14T08:48:33.572Z,71.57
2022-11-14T08:54:24.162Z,71.88
2022-11-14T09:00:15.551Z,71.85
2022-11-14T09:06:05.845Z,71.78
2022-11-14T09:11:56.259Z,71.27
2022-11-14T09:17:46.185Z,71.02
2022-11-14T09:23:36.515Z,71.48
2022-11-14T09:29:26.405Z,71.40
2022-11-14T09:35:16.854Z,71.32
2022-11-14T09:41:39.531Z,71.30
2022-11-14T09:47:31.957Z,71.45
2022-11-14T09:53:37.638Z,71.37
2022-11-14T09:59:27.773Z,71.50
2022-11-14T10:05:46.371Z,71.35
2022-11-14T10:11:40.847Z,71.82
2022-11-14T10:17:46.962Z,71.37
2022-11-14T10:23:39.624Z,71.66
2022-11-14T10:29:47.923Z,72.03
2022-11-14T10:35:46.319Z,71.85
2022-11-14T10:41:56.280Z,71.77
2022-11-14T10:47:51.249Z,71.92
2022-11-14T10:54:15.559Z,72.53
2022-11-14T11:00:23.192Z,73.25
2022-11-14T11:06:27.026Z,73.65
2022-11-14T11:12:22.188Z,72.90
2022-11-14T11:18:27.318Z,73.23
2022-11-14T11:24:30.497Z,72.99
2022-11-14T11:30:26.032Z,73.47
2022-11-14T11:36:18.966Z,73.66
2022-11-14T11:42:15.237Z,73.30
2022-11-14T11:48:37.545Z,73.59
2022-11-14T11:54:33.617Z,73.99
2022-11-14T12:00:23.949Z,74.02
2022-11-14T12:06:25.241Z,73.80
2022-11-14T12:12:40.999Z,73.94
2022-11-14T12:18:49.411Z,73.22
2022-11-14T12:24:51.880Z,73.92
2022-11-14T12:30:51.265Z,74.08
2022-11-14T12:36:44.030Z,74.24
2022-11-14T12:42:35.790Z,73.75
2022-11-14T12:48:26.228Z,74.28
2022-11-14T12:54:47.475Z,73.66
2022-11-14T13:00:46.677Z,73.62
2022-11-14T13:06:36.772Z,74.18
2022-11-14T13:12:52.863Z,74.00
2022-11-14T13:19:14.120Z,73.63
2022-11-14T13:25:19.414Z,73.38
2022-11-14T13:31:23.918Z,73.39
2022-11-14T13:37:51.456Z,73.53
2022-11-14T13:44:21.260Z,73.25
2022-11-14T13:50:13.771Z,73.38
2022-11-14T13:56:04.824Z,73.53
2022-11-14T14:02:22.579Z,73.23
2022-11-14T14:08:50.533Z,72.97
2022-11-14T14:15:16.725Z,73.13
2022-11-14T14:21:34.416Z,73.15
2022-11-14T14:27:36.254Z,73.44
2022-11-14T14:33:26.474Z,73.58
2022-11-14T14:39:20.437Z,73.88
2022-11-14T14:45:16.280Z,73.44
2022-11-14T14:51:07.608Z,73.37
2022-11-14T14:57:01.105Z,73.50
2022-11-14T15:02:51.468Z,73.82
2022-11-14T15:08:41.610Z,73.70
2022-11-14T15:14:33.227Z,73.79
2022-11-14T15:20:26.459Z,73.55
2022-11-14T15:26:17.938Z,73.35
2022-11-14T15:32:19.029Z,73.44
2022-11-14T15:44:30.768Z,73.24
2022-11-14T15:50:28.953Z,73.59
2022-11-14T15:56:19.170Z,73.38
2022-11-14T16:02:16.727Z,73.49
2022-11-14T16:08:06.897Z,73.59
2022-11-14T16:13:56.876Z,73.72
2022-11-14T16:19:47.264Z,73.38
2022-11-14T16:25:37.477Z,73.40
2022-11-14T16:31:27.909Z,73.69
2022-11-14T16:37:17.934Z,73.01
2022-11-14T16:43:12.730Z,73.52
2022-11-14T16:49:02.831Z,73.17
2022-11-14T16:54:52.716Z,72.98
2022-11-14T17:00:43.929Z,73.29
2022-11-14T17:06:34.013Z,73.31
2022-11-14T17:12:24.291Z,73.31
2022-11-14T17:18:14.672Z,73.51
2022-11-14T17:24:05.063Z,73.11
2022-11-14T17:29:55.318Z,73.11
2022-11-14T17:35:45.218Z,72.92
2022-11-14T17:41:35.450Z,72.86
2022-11-14T17:47:25.585Z,72.64
2022-11-14T17:53:16.157Z,72.94
2022-11-14T17:59:06.259Z,72.87
2022-11-14T18:04:56.191Z,72.76
2022-11-14T18:10:46.615Z,72.42
2022-11-14T18:17:05.318Z,72.41
2022-11-14T18:22:46.628Z,72.54
2022-11-14T18:28:36.537Z,72.77
2022-11-14T18:34:26.702Z,72.66
2022-11-14T18:40:17.861Z,72.52
2022-11-14T18:46:09.001Z,72.80
2022-11-14T18:52:02.362Z,72.39
2022-11-14T18:57:57.249Z,72.23
2022-11-14T19:03:47.559Z,72.47
2022-11-14T19:09:38.108Z,72.40
2022-11-14T19:15:28.156Z,72.29
2022-11-14T19:21:18.506Z,71.85
2022-11-14T19:27:09.903Z,72.06
2022-11-14T19:32:59.970Z,72.18
2022-11-14T19:38:56.824Z,71.98
2022-11-14T19:44:46.897Z,72.04
2022-11-14T19:50:37.378Z,71.87
2022-11-14T19:56:27.891Z,71.99
2022-11-14T20:02:17.849Z,71.82
2022-11-14T20:08:07.572Z,71.66
2022-11-14T20:13:58.805Z,71.77
2022-11-14T20:19:49.305Z,71.84
2022-11-14T20:25:40.575Z,71.83
2022-11-14T20:31:31.489Z,71.78
2022-11-14T20:37:21.799Z,71.70
2022-11-14T20:43:11.912Z,71.52
2022-11-14T20:49:02.270Z,71.45
2022-11-14T20:54:52.460Z,71.54
2022-11-14T21:00:42.117Z,71.35
2022-11-14T21:06:32.232Z,71.71
2022-11-14T21:12:22.269Z,71.53
2022-11-14T21:18:12.519Z,71.63
2022-11-14T21:24:02.787Z,71.71
2022-11-14T21:29:54.037Z,71.70
2022-11-14T21:35:44.299Z,71.76
2022-11-14T21:41:34.233Z,71.73
2022-11-14T21:47:24.727Z,71.76
2022-11-14T21:53:18.011Z,71.96
2022-11-14T21:59:14.523Z,71.97
2022-11-14T22:05:04.857Z,71.82
2022-11-14T22:11:00.592Z,72.05
2022-11-14T22:16:50.935Z,71.88
2022-11-14T22:22:40.613Z,71.83
2022-11-14T22:28:30.848Z,72.01
2022-11-14T22:34:20.986Z,71.98
2022-11-14T22:40:11.557Z,71.92
2022-11-14T22:46:02.360Z,71.86
2022-11-14T22:51:52.470Z,71.63
2022-11-14T22:57:42.578Z,71.84
2022-11-14T23:03:32.648Z,71.73
2022-11-14T23:09:22.830Z,71.95
2022-11-14T23:15:12.852Z,71.80
2022-11-14T23:21:07.676Z,71.52
2022-11-14T23:26:57.720Z,71.40
2022-11-14T23:32:47.940Z,71.41
2022-11-14T23:38:38.343Z,71.77
2022-11-14T23:44:28.295Z,71.72
2022-11-14T23:50:18.332Z,71.62
2022-11-14T23:56:13.507Z,71.64
